sensor_id;sensor_type;location;lat;lon;timestamp;P1;durP1;ratioP1;P2;durP2;ratioP2
9892;SDS011;4985;49.092;8.542;2023-05-10T00:00:46;0.70;;;0.70;;
9892;SDS011;4985;49.092;8.542;2023-05-10T00:03:12;0.60;;;0.60;;
9892;SDS011;4985;49.092;8.542;2023-05-10T00:05:39;0.80;;;0.80;;
9892;SDS011;4985;49.092;8.542;2023-05-10T00:08:05;0.73;;;0.73;;
9892;SDS011;4985;49.092;8.542;2023-05-10T00:10:32;0.62;;;0.62;;
9892;SDS011;4985;49.092;8.542;2023-05-10T00:13:00;1.17;;;0.80;;
9892;SDS011;4985;49.092;8.542;2023-05-10T00:15:27;0.60;;;0.60;;
9892;SDS011;4985;49.092;8.542;2023-05-10T00:17:55;0.55;;;0.55;;
9892;SDS011;4985;49.092;8.542;2023-05-10T00:20:22;0.73;;;0.70;;
9892;SDS011;4985;49.092;8.542;2023-05-10T00:22:48;1.00;;;0.70;;
9892;SDS011;4985;49.092;8.542;2023-05-10T00:25:15;2.15;;;0.70;;
9892;SDS011;4985;49.092;8.542;2023-05-10T00:27:41;0.88;;;0.88;;
9892;SDS011;4985;49.092;8.542;2023-05-10T00:30:10;1.45;;;0.70;;
9892;SDS011;4985;49.092;8.542;2023-05-10T00:32:36;0.60;;;0.60;;
9892;SDS011;4985;49.092;8.542;2023-05-10T00:35:03;0.77;;;0.77;;
9892;SDS011;4985;49.092;8.542;2023-05-10T00:37:30;0.60;;;0.60;;
9892;SDS011;4985;49.092;8.542;2023-05-10T00:39:57;0.70;;;0.70;;
9892;SDS011;4985;49.092;8.542;2023-05-10T00:42:23;0.93;;;0.90;;
9892;SDS011;4985;49.092;8.542;2023-05-10T00:44:50;0.55;;;0.55;;
9892;SDS011;4985;49.092;8.542;2023-05-10T00:47:18;1.25;;;0.90;;
9892;SDS011;4985;49.092;8.542;2023-05-10T00:49:44;0.60;;;0.60;;
9892;SDS011;4985;49.092;8.542;2023-05-10T00:52:12;0.70;;;0.70;;
9892;SDS011;4985;49.092;8.542;2023-05-10T00:54:39;0.75;;;0.75;;
9892;SDS011;4985;49.092;8.542;2023-05-10T00:57:05;2.60;;;0.88;;
9892;SDS011;4985;49.092;8.542;2023-05-10T00:59:32;0.70;;;0.68;;
9892;SDS011;4985;49.092;8.542;2023-05-10T01:01:59;0.40;;;0.40;;
9892;SDS011;4985;49.092;8.542;2023-05-10T01:04:27;0.50;;;0.50;;
9892;SDS011;4985;49.092;8.542;2023-05-10T01:06:53;0.43;;;0.43;;
9892;SDS011;4985;49.092;8.542;2023-05-10T01:09:20;0.50;;;0.50;;
9892;SDS011;4985;49.092;8.542;2023-05-10T01:11:48;0.40;;;0.40;;
9892;SDS011;4985;49.092;8.542;2023-05-10T01:14:15;0.75;;;0.70;;
9892;SDS011;4985;49.092;8.542;2023-05-10T01:16:45;1.00;;;0.90;;
9892;SDS011;4985;49.092;8.542;2023-05-10T01:19:17;1.12;;;0.85;;
9892;SDS011;4985;49.092;8.542;2023-05-10T01:21:49;0.88;;;0.80;;
9892;SDS011;4985;49.092;8.542;2023-05-10T01:24:36;1.98;;;0.82;;
9892;SDS011;4985;49.092;8.542;2023-05-10T01:27:30;1.00;;;0.70;;
9892;SDS011;4985;49.092;8.542;2023-05-10T01:30:22;0.73;;;0.73;;
9892;SDS011;4985;49.092;8.542;2023-05-10T01:33:11;1.37;;;0.80;;
9892;SDS011;4985;49.092;8.542;2023-05-10T01:35:46;0.70;;;0.70;;
9892;SDS011;4985;49.092;8.542;2023-05-10T01:38:22;1.12;;;0.90;;
9892;SDS011;4985;49.092;8.542;2023-05-10T01:40:57;0.80;;;0.80;;
9892;SDS011;4985;49.092;8.542;2023-05-10T01:43:35;2.22;;;0.90;;
9892;SDS011;4985;49.092;8.542;2023-05-10T01:46:09;0.95;;;0.80;;
9892;SDS011;4985;49.092;8.542;2023-05-10T01:48:44;1.17;;;1.08;;
9892;SDS011;4985;49.092;8.542;2023-05-10T01:51:14;0.82;;;0.82;;
9892;SDS011;4985;49.092;8.542;2023-05-10T01:53:45;0.82;;;0.82;;
9892;SDS011;4985;49.092;8.542;2023-05-10T01:56:14;0.88;;;0.88;;
9892;SDS011;4985;49.092;8.542;2023-05-10T01:58:43;1.08;;;0.98;;
9892;SDS011;4985;49.092;8.542;2023-05-10T02:01:13;1.35;;;1.20;;
9892;SDS011;4985;49.092;8.542;2023-05-10T02:03:42;0.80;;;0.80;;
9892;SDS011;4985;49.092;8.542;2023-05-10T02:06:10;0.93;;;0.90;;
9892;SDS011;4985;49.092;8.542;2023-05-10T02:08:38;1.50;;;1.08;;
9892;SDS011;4985;49.092;8.542;2023-05-10T02:11:07;0.80;;;0.80;;
9892;SDS011;4985;49.092;8.542;2023-05-10T02:13:35;3.62;;;1.00;;
9892;SDS011;4985;49.092;8.542;2023-05-10T02:16:04;0.80;;;0.80;;
9892;SDS011;4985;49.092;8.542;2023-05-10T02:18:32;0.93;;;0.93;;
9892;SDS011;4985;49.092;8.542;2023-05-10T02:21:03;1.00;;;1.00;;
9892;SDS011;4985;49.092;8.542;2023-05-10T02:23:30;1.00;;;1.00;;
9892;SDS011;4985;49.092;8.542;2023-05-10T02:25:58;3.25;;;1.00;;
9892;SDS011;4985;49.092;8.542;2023-05-10T02:28:26;1.10;;;1.00;;
9892;SDS011;4985;49.092;8.542;2023-05-10T02:30:55;1.10;;;1.00;;
9892;SDS011;4985;49.092;8.542;2023-05-10T02:33:22;1.00;;;1.00;;
9892;SDS011;4985;49.092;8.542;2023-05-10T02:35:50;1.42;;;1.30;;
9892;SDS011;4985;49.092;8.542;2023-05-10T02:38:18;1.17;;;1.08;;
9892;SDS011;4985;49.092;8.542;2023-05-10T02:40:46;1.00;;;1.00;;
9892;SDS011;4985;49.092;8.542;2023-05-10T02:43:14;1.33;;;1.23;;
9892;SDS011;4985;49.092;8.542;2023-05-10T02:45:43;1.40;;;1.30;;
9892;SDS011;4985;49.092;8.542;2023-05-10T02:48:13;1.67;;;1.20;;
9892;SDS011;4985;49.092;8.542;2023-05-10T02:50:39;1.55;;;1.30;;
9892;SDS011;4985;49.092;8.542;2023-05-10T02:53:10;1.60;;;1.20;;
9892;SDS011;4985;49.092;8.542;2023-05-10T02:55:42;1.30;;;1.20;;
9892;SDS011;4985;49.092;8.542;2023-05-10T02:58:15;1.30;;;1.20;;
9892;SDS011;4985;49.092;8.542;2023-05-10T03:00:44;1.52;;;1.37;;
9892;SDS011;4985;49.092;8.542;2023-05-10T03:03:11;1.55;;;1.45;;
9892;SDS011;4985;49.092;8.542;2023-05-10T03:05:37;1.67;;;1.37;;
9892;SDS011;4985;49.092;8.542;2023-05-10T03:08:04;2.65;;;1.50;;
9892;SDS011;4985;49.092;8.542;2023-05-10T03:10:31;1.73;;;1.60;;
9892;SDS011;4985;49.092;8.542;2023-05-10T03:13:07;1.95;;;1.52;;
9892;SDS011;4985;49.092;8.542;2023-05-10T03:15:45;2.65;;;1.70;;
9892;SDS011;4985;49.092;8.542;2023-05-10T03:18:19;3.90;;;1.70;;
9892;SDS011;4985;49.092;8.542;2023-05-10T03:20:48;2.72;;;1.52;;
9892;SDS011;4985;49.092;8.542;2023-05-10T03:23:20;2.67;;;1.60;;
9892;SDS011;4985;49.092;8.542;2023-05-10T03:25:49;2.35;;;1.55;;
9892;SDS011;4985;49.092;8.542;2023-05-10T03:28:18;1.50;;;1.40;;
9892;SDS011;4985;49.092;8.542;2023-05-10T03:30:45;2.05;;;1.48;;
9892;SDS011;4985;49.092;8.542;2023-05-10T03:33:12;1.70;;;1.60;;
9892;SDS011;4985;49.092;8.542;2023-05-10T03:35:39;3.12;;;1.45;;
9892;SDS011;4985;49.092;8.542;2023-05-10T03:38:06;1.62;;;1.52;;
9892;SDS011;4985;49.092;8.542;2023-05-10T03:40:32;1.40;;;1.30;;
9892;SDS011;4985;49.092;8.542;2023-05-10T03:42:59;1.75;;;1.58;;
9892;SDS011;4985;49.092;8.542;2023-05-10T03:45:27;1.77;;;1.42;;
9892;SDS011;4985;49.092;8.542;2023-05-10T03:47:54;2.20;;;1.30;;
9892;SDS011;4985;49.092;8.542;2023-05-10T03:50:21;1.30;;;1.20;;
9892;SDS011;4985;49.092;8.542;2023-05-10T03:52:48;3.03;;;1.30;;
9892;SDS011;4985;49.092;8.542;2023-05-10T03:55:15;2.42;;;1.73;;
9892;SDS011;4985;49.092;8.542;2023-05-10T03:57:42;1.52;;;1.27;;
9892;SDS011;4985;49.092;8.542;2023-05-10T04:00:09;2.20;;;1.42;;
9892;SDS011;4985;49.092;8.542;2023-05-10T04:02:37;2.10;;;1.60;;
9892;SDS011;4985;49.092;8.542;2023-05-10T04:05:04;1.73;;;1.40;;
9892;SDS011;4985;49.092;8.542;2023-05-10T04:07:31;1.83;;;1.30;;
9892;SDS011;4985;49.092;8.542;2023-05-10T04:09:58;1.50;;;1.40;;
9892;SDS011;4985;49.092;8.542;2023-05-10T04:12:24;1.90;;;1.45;;
9892;SDS011;4985;49.092;8.542;2023-05-10T04:14:51;1.33;;;1.23;;
9892;SDS011;4985;49.092;8.542;2023-05-10T04:17:17;1.50;;;1.33;;
9892;SDS011;4985;49.092;8.542;2023-05-10T04:19:45;1.67;;;1.58;;
9892;SDS011;4985;49.092;8.542;2023-05-10T04:22:12;1.70;;;1.50;;
9892;SDS011;4985;49.092;8.542;2023-05-10T04:24:38;1.50;;;1.40;;
9892;SDS011;4985;49.092;8.542;2023-05-10T04:27:05;1.50;;;1.40;;
9892;SDS011;4985;49.092;8.542;2023-05-10T04:29:31;1.50;;;1.40;;
9892;SDS011;4985;49.092;8.542;2023-05-10T04:31:58;1.70;;;1.60;;
9892;SDS011;4985;49.092;8.542;2023-05-10T04:34:24;1.77;;;1.40;;
9892;SDS011;4985;49.092;8.542;2023-05-10T04:36:52;1.60;;;1.50;;
9892;SDS011;4985;49.092;8.542;2023-05-10T04:39:19;1.40;;;1.30;;
9892;SDS011;4985;49.092;8.542;2023-05-10T04:41:45;1.73;;;1.40;;
9892;SDS011;4985;49.092;8.542;2023-05-10T04:44:12;2.42;;;1.42;;
9892;SDS011;4985;49.092;8.542;2023-05-10T04:46:39;1.65;;;1.55;;
9892;SDS011;4985;49.092;8.542;2023-05-10T04:49:05;1.30;;;1.20;;
9892;SDS011;4985;49.092;8.542;2023-05-10T04:51:32;1.10;;;1.10;;
9892;SDS011;4985;49.092;8.542;2023-05-10T04:54:00;1.52;;;1.20;;
9892;SDS011;4985;49.092;8.542;2023-05-10T04:56:26;1.20;;;1.10;;
9892;SDS011;4985;49.092;8.542;2023-05-10T04:58:53;1.40;;;1.30;;
9892;SDS011;4985;49.092;8.542;2023-05-10T05:01:19;3.30;;;1.48;;
9892;SDS011;4985;49.092;8.542;2023-05-10T05:03:46;1.58;;;1.48;;
9892;SDS011;4985;49.092;8.542;2023-05-10T05:06:12;6.22;;;1.60;;
9892;SDS011;4985;49.092;8.542;2023-05-10T05:08:39;1.55;;;1.30;;
9892;SDS011;4985;49.092;8.542;2023-05-10T05:11:07;1.67;;;1.58;;
9892;SDS011;4985;49.092;8.542;2023-05-10T05:13:33;1.95;;;1.60;;
9892;SDS011;4985;49.092;8.542;2023-05-10T05:16:00;1.70;;;1.60;;
9892;SDS011;4985;49.092;8.542;2023-05-10T05:18:27;1.85;;;1.70;;
9892;SDS011;4985;49.092;8.542;2023-05-10T05:20:53;2.90;;;2.40;;
9892;SDS011;4985;49.092;8.542;2023-05-10T05:23:20;1.95;;;1.30;;
9892;SDS011;4985;49.092;8.542;2023-05-10T05:25:49;2.75;;;1.37;;
9892;SDS011;4985;49.092;8.542;2023-05-10T05:28:18;2.75;;;1.50;;
9892;SDS011;4985;49.092;8.542;2023-05-10T05:30:45;1.60;;;1.35;;
9892;SDS011;4985;49.092;8.542;2023-05-10T05:33:12;1.60;;;1.50;;
9892;SDS011;4985;49.092;8.542;2023-05-10T05:35:40;2.72;;;1.60;;
9892;SDS011;4985;49.092;8.542;2023-05-10T05:38:07;1.67;;;1.50;;
9892;SDS011;4985;49.092;8.542;2023-05-10T05:40:34;2.10;;;1.50;;
9892;SDS011;4985;49.092;8.542;2023-05-10T05:43:01;1.92;;;1.70;;
9892;SDS011;4985;49.092;8.542;2023-05-10T05:45:29;2.20;;;1.50;;
9892;SDS011;4985;49.092;8.542;2023-05-10T05:47:55;1.70;;;1.60;;
9892;SDS011;4985;49.092;8.542;2023-05-10T05:50:22;1.30;;;1.20;;
9892;SDS011;4985;49.092;8.542;2023-05-10T05:52:48;4.25;;;1.55;;
9892;SDS011;4985;49.092;8.542;2023-05-10T05:55:15;1.77;;;1.40;;
9892;SDS011;4985;49.092;8.542;2023-05-10T05:57:41;3.40;;;1.52;;
9892;SDS011;4985;49.092;8.542;2023-05-10T06:00:08;1.75;;;1.27;;
9892;SDS011;4985;49.092;8.542;2023-05-10T06:02:36;1.65;;;1.30;;
9892;SDS011;4985;49.092;8.542;2023-05-10T06:05:03;4.25;;;1.70;;
9892;SDS011;4985;49.092;8.542;2023-05-10T06:07:30;1.48;;;1.10;;
9892;SDS011;4985;49.092;8.542;2023-05-10T06:09:57;1.20;;;1.10;;
9892;SDS011;4985;49.092;8.542;2023-05-10T06:12:23;2.22;;;1.10;;
9892;SDS011;4985;49.092;8.542;2023-05-10T06:14:50;1.40;;;1.30;;
9892;SDS011;4985;49.092;8.542;2023-05-10T06:17:16;2.17;;;1.10;;
9892;SDS011;4985;49.092;8.542;2023-05-10T06:19:44;2.47;;;1.10;;
9892;SDS011;4985;49.092;8.542;2023-05-10T06:22:11;2.33;;;1.27;;
9892;SDS011;4985;49.092;8.542;2023-05-10T06:24:38;0.90;;;0.90;;
9892;SDS011;4985;49.092;8.542;2023-05-10T06:27:05;1.23;;;1.12;;
9892;SDS011;4985;49.092;8.542;2023-05-10T06:29:32;1.92;;;1.05;;
9892;SDS011;4985;49.092;8.542;2023-05-10T06:31:59;2.03;;;1.20;;
9892;SDS011;4985;49.092;8.542;2023-05-10T06:34:25;1.10;;;1.00;;
9892;SDS011;4985;49.092;8.542;2023-05-10T06:36:53;3.35;;;1.20;;
9892;SDS011;4985;49.092;8.542;2023-05-10T06:39:20;0.90;;;0.90;;
9892;SDS011;4985;49.092;8.542;2023-05-10T06:41:46;1.62;;;1.25;;
9892;SDS011;4985;49.092;8.542;2023-05-10T06:44:13;1.10;;;1.00;;
9892;SDS011;4985;49.092;8.542;2023-05-10T06:46:39;1.67;;;1.40;;
9892;SDS011;4985;49.092;8.542;2023-05-10T06:49:06;2.72;;;1.10;;
9892;SDS011;4985;49.092;8.542;2023-05-10T06:51:33;1.50;;;1.40;;
9892;SDS011;4985;49.092;8.542;2023-05-10T06:54:01;2.05;;;1.23;;
9892;SDS011;4985;49.092;8.542;2023-05-10T06:56:28;1.30;;;1.20;;
9892;SDS011;4985;49.092;8.542;2023-05-10T06:58:54;2.72;;;1.40;;
9892;SDS011;4985;49.092;8.542;2023-05-10T07:01:21;0.98;;;0.90;;
9892;SDS011;4985;49.092;8.542;2023-05-10T07:03:48;1.27;;;1.17;;
9892;SDS011;4985;49.092;8.542;2023-05-10T07:06:14;1.58;;;1.17;;
9892;SDS011;4985;49.092;8.542;2023-05-10T07:08:41;1.45;;;1.10;;
9892;SDS011;4985;49.092;8.542;2023-05-10T07:11:09;1.10;;;1.00;;
9892;SDS011;4985;49.092;8.542;2023-05-10T07:13:36;2.10;;;1.30;;
9892;SDS011;4985;49.092;8.542;2023-05-10T07:16:04;1.02;;;0.90;;
9892;SDS011;4985;49.092;8.542;2023-05-10T07:18:31;1.23;;;1.00;;
9892;SDS011;4985;49.092;8.542;2023-05-10T07:20:58;1.30;;;1.20;;
9892;SDS011;4985;49.092;8.542;2023-05-10T07:23:24;2.22;;;1.33;;
9892;SDS011;4985;49.092;8.542;2023-05-10T07:25:51;1.35;;;1.12;;
9892;SDS011;4985;49.092;8.542;2023-05-10T07:28:19;1.10;;;0.90;;
9892;SDS011;4985;49.092;8.542;2023-05-10T07:30:46;3.50;;;1.40;;
9892;SDS011;4985;49.092;8.542;2023-05-10T07:33:13;1.37;;;1.27;;
9892;SDS011;4985;49.092;8.542;2023-05-10T07:35:40;0.75;;;0.75;;
9892;SDS011;4985;49.092;8.542;2023-05-10T07:38:07;1.45;;;1.05;;
9892;SDS011;4985;49.092;8.542;2023-05-10T07:40:33;1.35;;;1.08;;
9892;SDS011;4985;49.092;8.542;2023-05-10T07:43:00;1.15;;;1.05;;
9892;SDS011;4985;49.092;8.542;2023-05-10T07:45:28;1.33;;;0.90;;
9892;SDS011;4985;49.092;8.542;2023-05-10T07:47:55;1.45;;;0.90;;
9892;SDS011;4985;49.092;8.542;2023-05-10T07:50:21;1.42;;;1.17;;
9892;SDS011;4985;49.092;8.542;2023-05-10T07:52:48;1.08;;;0.98;;
9892;SDS011;4985;49.092;8.542;2023-05-10T07:55:15;0.80;;;0.80;;
9892;SDS011;4985;49.092;8.542;2023-05-10T07:57:41;1.48;;;1.15;;
9892;SDS011;4985;49.092;8.542;2023-05-10T08:00:08;1.25;;;1.12;;
9892;SDS011;4985;49.092;8.542;2023-05-10T08:02:44;0.90;;;0.90;;
9892;SDS011;4985;49.092;8.542;2023-05-10T08:05:11;0.80;;;0.80;;
9892;SDS011;4985;49.092;8.542;2023-05-10T08:07:37;0.90;;;0.90;;
9892;SDS011;4985;49.092;8.542;2023-05-10T08:10:04;1.50;;;1.40;;
9892;SDS011;4985;49.092;8.542;2023-05-10T08:12:32;0.98;;;0.98;;
9892;SDS011;4985;49.092;8.542;2023-05-10T08:14:58;1.10;;;1.00;;
9892;SDS011;4985;49.092;8.542;2023-05-10T08:17:25;0.90;;;0.90;;
9892;SDS011;4985;49.092;8.542;2023-05-10T08:19:53;1.00;;;1.00;;
9892;SDS011;4985;49.092;8.542;2023-05-10T08:22:20;0.80;;;0.80;;
9892;SDS011;4985;49.092;8.542;2023-05-10T08:24:46;1.05;;;0.88;;
9892;SDS011;4985;49.092;8.542;2023-05-10T08:27:13;1.00;;;0.85;;
9892;SDS011;4985;49.092;8.542;2023-05-10T08:29:39;0.93;;;0.90;;
9892;SDS011;4985;49.092;8.542;2023-05-10T08:32:06;1.12;;;1.02;;
9892;SDS011;4985;49.092;8.542;2023-05-10T08:34:32;0.75;;;0.75;;
9892;SDS011;4985;49.092;8.542;2023-05-10T08:37:00;1.40;;;0.80;;
9892;SDS011;4985;49.092;8.542;2023-05-10T08:39:27;0.70;;;0.70;;
9892;SDS011;4985;49.092;8.542;2023-05-10T08:41:53;1.83;;;0.90;;
9892;SDS011;4985;49.092;8.542;2023-05-10T08:44:25;1.17;;;0.90;;
9892;SDS011;4985;49.092;8.542;2023-05-10T08:46:52;1.15;;;1.05;;
9892;SDS011;4985;49.092;8.542;2023-05-10T08:49:20;1.15;;;1.05;;
9892;SDS011;4985;49.092;8.542;2023-05-10T08:51:49;2.62;;;1.55;;
9892;SDS011;4985;49.092;8.542;2023-05-10T08:54:19;1.45;;;0.90;;
9892;SDS011;4985;49.092;8.542;2023-05-10T08:56:47;1.40;;;0.93;;
9892;SDS011;4985;49.092;8.542;2023-05-10T08:59:14;0.90;;;0.80;;
9892;SDS011;4985;49.092;8.542;2023-05-10T09:01:41;1.80;;;1.17;;
9892;SDS011;4985;49.092;8.542;2023-05-10T09:04:10;0.90;;;0.90;;
9892;SDS011;4985;49.092;8.542;2023-05-10T09:06:37;1.05;;;0.90;;
9892;SDS011;4985;49.092;8.542;2023-05-10T09:09:04;2.72;;;0.90;;
9892;SDS011;4985;49.092;8.542;2023-05-10T09:11:32;2.10;;;0.95;;
9892;SDS011;4985;49.092;8.542;2023-05-10T09:14:00;1.58;;;1.02;;
9892;SDS011;4985;49.092;8.542;2023-05-10T09:16:27;1.50;;;0.77;;
9892;SDS011;4985;49.092;8.542;2023-05-10T09:18:54;1.30;;;1.20;;
9892;SDS011;4985;49.092;8.542;2023-05-10T09:21:20;1.05;;;0.80;;
9892;SDS011;4985;49.092;8.542;2023-05-10T09:23:47;0.80;;;0.80;;
9892;SDS011;4985;49.092;8.542;2023-05-10T09:26:15;4.05;;;1.08;;
9892;SDS011;4985;49.092;8.542;2023-05-10T09:28:54;1.23;;;1.12;;
9892;SDS011;4985;49.092;8.542;2023-05-10T09:31:22;0.88;;;0.70;;
9892;SDS011;4985;49.092;8.542;2023-05-10T09:33:50;0.82;;;0.80;;
9892;SDS011;4985;49.092;8.542;2023-05-10T09:36:17;1.42;;;1.00;;
9892;SDS011;4985;49.092;8.542;2023-05-10T09:38:47;1.00;;;0.95;;
9892;SDS011;4985;49.092;8.542;2023-05-10T09:41:17;1.05;;;0.93;;
9892;SDS011;4985;49.092;8.542;2023-05-10T09:43:45;0.60;;;0.60;;
9892;SDS011;4985;49.092;8.542;2023-05-10T09:46:13;1.00;;;0.93;;
9892;SDS011;4985;49.092;8.542;2023-05-10T09:48:41;1.10;;;1.00;;
9892;SDS011;4985;49.092;8.542;2023-05-10T09:51:08;0.88;;;0.88;;
9892;SDS011;4985;49.092;8.542;2023-05-10T09:53:35;4.00;;;1.12;;
9892;SDS011;4985;49.092;8.542;2023-05-10T09:56:02;1.25;;;1.08;;
9892;SDS011;4985;49.092;8.542;2023-05-10T09:58:28;0.93;;;0.90;;
9892;SDS011;4985;49.092;8.542;2023-05-10T10:00:55;1.15;;;1.00;;
9892;SDS011;4985;49.092;8.542;2023-05-10T10:03:23;1.37;;;1.10;;
9892;SDS011;4985;49.092;8.542;2023-05-10T10:05:50;1.85;;;0.80;;
9892;SDS011;4985;49.092;8.542;2023-05-10T10:08:18;2.25;;;1.00;;
9892;SDS011;4985;49.092;8.542;2023-05-10T10:10:45;1.85;;;1.10;;
9892;SDS011;4985;49.092;8.542;2023-05-10T10:13:13;1.73;;;1.05;;
9892;SDS011;4985;49.092;8.542;2023-05-10T10:15:40;0.90;;;0.90;;
9892;SDS011;4985;49.092;8.542;2023-05-10T10:18:08;1.40;;;0.85;;
9892;SDS011;4985;49.092;8.542;2023-05-10T10:20:40;2.87;;;1.33;;
9892;SDS011;4985;49.092;8.542;2023-05-10T10:23:07;1.95;;;0.90;;
9892;SDS011;4985;49.092;8.542;2023-05-10T10:25:34;2.00;;;0.80;;
9892;SDS011;4985;49.092;8.542;2023-05-10T10:28:08;1.20;;;0.90;;
9892;SDS011;4985;49.092;8.542;2023-05-10T10:30:47;1.42;;;0.93;;
9892;SDS011;4985;49.092;8.542;2023-05-10T10:33:30;1.00;;;0.90;;
9892;SDS011;4985;49.092;8.542;2023-05-10T10:36:06;1.02;;;0.98;;
9892;SDS011;4985;49.092;8.542;2023-05-10T10:38:37;4.20;;;1.02;;
9892;SDS011;4985;49.092;8.542;2023-05-10T10:41:27;0.90;;;0.90;;
9892;SDS011;4985;49.092;8.542;2023-05-10T10:47:00;2.03;;;0.98;;
9892;SDS011;4985;49.092;8.542;2023-05-10T10:49:31;2.58;;;1.23;;
9892;SDS011;4985;49.092;8.542;2023-05-10T10:52:14;2.58;;;1.08;;
9892;SDS011;4985;49.092;8.542;2023-05-10T10:54:42;1.10;;;1.00;;
9892;SDS011;4985;49.092;8.542;2023-05-10T10:57:17;1.58;;;1.10;;
9892;SDS011;4985;49.092;8.542;2023-05-10T10:59:46;4.87;;;1.50;;
9892;SDS011;4985;49.092;8.542;2023-05-10T11:04:59;0.93;;;0.85;;
9892;SDS011;4985;49.092;8.542;2023-05-10T11:07:27;1.20;;;1.00;;
9892;SDS011;4985;49.092;8.542;2023-05-10T11:09:53;1.33;;;1.00;;
9892;SDS011;4985;49.092;8.542;2023-05-10T11:12:20;1.30;;;1.20;;
9892;SDS011;4985;49.092;8.542;2023-05-10T11:14:49;2.17;;;1.12;;
9892;SDS011;4985;49.092;8.542;2023-05-10T11:17:22;1.12;;;1.02;;
9892;SDS011;4985;49.092;8.542;2023-05-10T11:20:08;1.25;;;1.12;;
9892;SDS011;4985;49.092;8.542;2023-05-10T11:22:52;2.47;;;1.12;;
9892;SDS011;4985;49.092;8.542;2023-05-10T11:25:19;2.12;;;1.20;;
9892;SDS011;4985;49.092;8.542;2023-05-10T11:27:47;1.37;;;1.27;;
9892;SDS011;4985;49.092;8.542;2023-05-10T11:30:14;1.52;;;1.40;;
9892;SDS011;4985;49.092;8.542;2023-05-10T11:32:41;2.33;;;1.40;;
9892;SDS011;4985;49.092;8.542;2023-05-10T11:35:08;1.45;;;1.27;;
9892;SDS011;4985;49.092;8.542;2023-05-10T11:37:35;1.58;;;1.27;;
9892;SDS011;4985;49.092;8.542;2023-05-10T11:40:04;2.17;;;1.50;;
9892;SDS011;4985;49.092;8.542;2023-05-10T11:42:31;2.33;;;1.30;;
9892;SDS011;4985;49.092;8.542;2023-05-10T11:45:00;1.95;;;1.20;;
9892;SDS011;4985;49.092;8.542;2023-05-10T11:47:26;2.30;;;1.55;;
9892;SDS011;4985;49.092;8.542;2023-05-10T11:49:53;1.20;;;1.10;;
9892;SDS011;4985;49.092;8.542;2023-05-10T11:52:20;1.48;;;1.20;;
9892;SDS011;4985;49.092;8.542;2023-05-10T11:54:50;2.22;;;1.20;;
9892;SDS011;4985;49.092;8.542;2023-05-10T11:57:19;0.95;;;0.82;;
9892;SDS011;4985;49.092;8.542;2023-05-10T11:59:46;1.85;;;1.40;;
9892;SDS011;4985;49.092;8.542;2023-05-10T12:02:13;1.35;;;1.17;;
9892;SDS011;4985;49.092;8.542;2023-05-10T12:04:40;2.65;;;1.20;;
9892;SDS011;4985;49.092;8.542;2023-05-10T12:07:07;1.40;;;1.10;;
9892;SDS011;4985;49.092;8.542;2023-05-10T12:09:34;1.27;;;1.12;;
9892;SDS011;4985;49.092;8.542;2023-05-10T12:12:00;2.30;;;1.10;;
9892;SDS011;4985;49.092;8.542;2023-05-10T12:14:30;1.75;;;1.12;;
9892;SDS011;4985;49.092;8.542;2023-05-10T12:17:01;1.52;;;1.10;;
9892;SDS011;4985;49.092;8.542;2023-05-10T12:19:28;1.45;;;1.30;;
9892;SDS011;4985;49.092;8.542;2023-05-10T12:22:04;1.92;;;1.33;;
9892;SDS011;4985;49.092;8.542;2023-05-10T12:24:30;1.98;;;1.37;;
9892;SDS011;4985;49.092;8.542;2023-05-10T12:27:03;5.97;;;1.35;;
9892;SDS011;4985;49.092;8.542;2023-05-10T12:29:33;2.35;;;1.25;;
9892;SDS011;4985;49.092;8.542;2023-05-10T12:32:00;1.08;;;0.98;;
9892;SDS011;4985;49.092;8.542;2023-05-10T12:34:26;2.47;;;1.12;;
9892;SDS011;4985;49.092;8.542;2023-05-10T12:36:56;1.00;;;0.90;;
9892;SDS011;4985;49.092;8.542;2023-05-10T12:39:23;1.10;;;0.90;;
9892;SDS011;4985;49.092;8.542;2023-05-10T12:41:50;0.80;;;0.80;;
9892;SDS011;4985;49.092;8.542;2023-05-10T12:44:16;2.17;;;1.30;;
9892;SDS011;4985;49.092;8.542;2023-05-10T12:46:45;1.15;;;0.90;;
9892;SDS011;4985;49.092;8.542;2023-05-10T12:49:12;1.15;;;0.95;;
9892;SDS011;4985;49.092;8.542;2023-05-10T12:51:39;0.80;;;0.80;;
9892;SDS011;4985;49.092;8.542;2023-05-10T12:54:05;1.50;;;0.90;;
9892;SDS011;4985;49.092;8.542;2023-05-10T12:56:32;1.52;;;1.00;;
9892;SDS011;4985;49.092;8.542;2023-05-10T12:58:58;1.62;;;1.00;;
9892;SDS011;4985;49.092;8.542;2023-05-10T13:01:25;1.02;;;0.90;;
9892;SDS011;4985;49.092;8.542;2023-05-10T13:03:53;1.37;;;0.98;;
9892;SDS011;4985;49.092;8.542;2023-05-10T13:06:19;1.45;;;0.90;;
9892;SDS011;4985;49.092;8.542;2023-05-10T13:08:46;1.33;;;0.95;;
9892;SDS011;4985;49.092;8.542;2023-05-10T13:11:12;3.28;;;1.20;;
9892;SDS011;4985;49.092;8.542;2023-05-10T13:13:41;0.95;;;0.85;;
9892;SDS011;4985;49.092;8.542;2023-05-10T13:16:08;1.08;;;1.00;;
9892;SDS011;4985;49.092;8.542;2023-05-10T13:18:34;2.05;;;1.00;;
9892;SDS011;4985;49.092;8.542;2023-05-10T13:21:02;1.75;;;1.23;;
9892;SDS011;4985;49.092;8.542;2023-05-10T13:23:30;0.70;;;0.70;;
9892;SDS011;4985;49.092;8.542;2023-05-10T13:25:56;0.80;;;0.80;;
9892;SDS011;4985;49.092;8.542;2023-05-10T13:28:23;0.93;;;0.90;;
9892;SDS011;4985;49.092;8.542;2023-05-10T13:30:51;1.50;;;1.10;;
9892;SDS011;4985;49.092;8.542;2023-05-10T13:33:17;2.87;;;0.75;;
9892;SDS011;4985;49.092;8.542;2023-05-10T13:35:44;1.42;;;1.02;;
9892;SDS011;4985;49.092;8.542;2023-05-10T13:38:12;1.42;;;1.20;;
9892;SDS011;4985;49.092;8.542;2023-05-10T13:40:39;0.90;;;0.90;;
9892;SDS011;4985;49.092;8.542;2023-05-10T13:43:05;0.80;;;0.80;;
9892;SDS011;4985;49.092;8.542;2023-05-10T13:45:32;1.65;;;0.80;;
9892;SDS011;4985;49.092;8.542;2023-05-10T13:47:58;0.90;;;0.90;;
9892;SDS011;4985;49.092;8.542;2023-05-10T13:50:25;2.20;;;0.98;;
9892;SDS011;4985;49.092;8.542;2023-05-10T13:52:52;1.37;;;1.20;;
9892;SDS011;4985;49.092;8.542;2023-05-10T13:55:20;1.62;;;1.00;;
9892;SDS011;4985;49.092;8.542;2023-05-10T13:57:46;1.55;;;1.10;;
9892;SDS011;4985;49.092;8.542;2023-05-10T14:00:13;3.30;;;1.15;;
9892;SDS011;4985;49.092;8.542;2023-05-10T14:02:41;1.17;;;0.90;;
9892;SDS011;4985;49.092;8.542;2023-05-10T14:05:08;1.87;;;1.10;;
9892;SDS011;4985;49.092;8.542;2023-05-10T14:07:34;1.67;;;0.80;;
9892;SDS011;4985;49.092;8.542;2023-05-10T14:10:01;2.10;;;1.00;;
9892;SDS011;4985;49.092;8.542;2023-05-10T14:12:29;1.55;;;0.90;;
9892;SDS011;4985;49.092;8.542;2023-05-10T14:14:56;1.00;;;0.70;;
9892;SDS011;4985;49.092;8.542;2023-05-10T14:17:23;1.02;;;0.90;;
9892;SDS011;4985;49.092;8.542;2023-05-10T14:19:49;1.50;;;1.12;;
9892;SDS011;4985;49.092;8.542;2023-05-10T14:22:16;2.20;;;0.90;;
9892;SDS011;4985;49.092;8.542;2023-05-10T14:24:43;1.05;;;0.70;;
9892;SDS011;4985;49.092;8.542;2023-05-10T14:27:11;1.62;;;1.00;;
9892;SDS011;4985;49.092;8.542;2023-05-10T14:29:39;1.10;;;1.00;;
9892;SDS011;4985;49.092;8.542;2023-05-10T14:32:06;1.00;;;0.90;;
9892;SDS011;4985;49.092;8.542;2023-05-10T14:34:32;1.75;;;0.70;;
9892;SDS011;4985;49.092;8.542;2023-05-10T14:36:59;1.17;;;0.90;;
9892;SDS011;4985;49.092;8.542;2023-05-10T14:39:26;1.75;;;0.90;;
9892;SDS011;4985;49.092;8.542;2023-05-10T14:41:54;0.82;;;0.70;;
9892;SDS011;4985;49.092;8.542;2023-05-10T14:44:21;2.22;;;1.10;;
9892;SDS011;4985;49.092;8.542;2023-05-10T14:46:50;3.80;;;1.12;;
9892;SDS011;4985;49.092;8.542;2023-05-10T14:49:16;2.40;;;1.35;;
9892;SDS011;4985;49.092;8.542;2023-05-10T14:51:43;0.75;;;0.60;;
9892;SDS011;4985;49.092;8.542;2023-05-10T14:54:10;0.93;;;0.70;;
9892;SDS011;4985;49.092;8.542;2023-05-10T14:56:37;1.27;;;0.80;;
9892;SDS011;4985;49.092;8.542;2023-05-10T14:59:03;1.02;;;0.82;;
9892;SDS011;4985;49.092;8.542;2023-05-10T15:01:30;0.93;;;0.85;;
9892;SDS011;4985;49.092;8.542;2023-05-10T15:03:59;3.10;;;0.82;;
9892;SDS011;4985;49.092;8.542;2023-05-10T15:06:30;1.60;;;0.90;;
9892;SDS011;4985;49.092;8.542;2023-05-10T15:08:57;1.27;;;0.90;;
9892;SDS011;4985;49.092;8.542;2023-05-10T15:11:24;1.80;;;0.85;;
9892;SDS011;4985;49.092;8.542;2023-05-10T15:13:50;0.93;;;0.88;;
9892;SDS011;4985;49.092;8.542;2023-05-10T15:16:17;1.50;;;0.90;;
9892;SDS011;4985;49.092;8.542;2023-05-10T15:18:44;2.83;;;0.98;;
9892;SDS011;4985;49.092;8.542;2023-05-10T15:21:12;0.93;;;0.80;;
9892;SDS011;4985;49.092;8.542;2023-05-10T15:23:38;1.00;;;0.82;;
9892;SDS011;4985;49.092;8.542;2023-05-10T15:26:05;0.73;;;0.73;;